Geneva, Georgia
Current Conditions -  °F | °C
As of 7:51 PM on Wednesday 17 Dec 2014 (Local Time) from KCSG Reporting Station
Clear Clear  
Wind Chill: 50°   Ceiling: Unl
Heat Index: 50°   Visibility: 10mi
Dew Point: 40°   Wind: 5mph
Humidity: 68%   Direction: 340°NNW
Pressure: 30.18"   Gusts: NA
Location:  32.58°N, 84.55°W
Report Text: KCSG 180051Z 34004KT 10SM CLR 10/04 A3018 RMK AO2 SLP221 T01000044 $
Loading
Personal Weather Stations






























Interactive Weather Map New forecast layout! Learn more

10-Day Weather Forecast

Advertisements
Track Severe Weather on mobile